Time;durP1;ratioP1;P1;durP2;ratioP2;P2;SDS_P1;SDS_P2;PMS_P1;PMS_P2;Temp;Humidity;BMP_temperature;BMP_pressure;BME280_temperature;BME280_humidity;BME280_pressure;Samples;Min_cycle;Max_cycle;Signal;HPM_P1;HPM_P2
2022/12/22 03:27:44;;;;;;;2.15;0.43;;;;;;;;;;5106573;28;20043;-74
2022/12/22 03:30:14;;;;;;;3.60;0.50;;;;;;;;;;5106802;28;20828;-74
2022/12/22 03:32:45;;;;;;;1.92;0.38;;;;;;;;;;5106226;28;20036;-74
2022/12/22 03:35:15;;;;;;;1.98;0.60;;;;;;;;;;5106561;28;20039;-75
2022/12/22 03:37:44;;;;;;;6.80;0.90;;;;;;;;;;5107351;28;20059;-74
2022/12/22 03:40:14;;;;;;;2.40;0.40;;;;;;;;;;5108930;28;20055;-75
2022/12/22 03:48:21;;;;;;;2.17;0.45;;;;;;;;;;5110930;28;20047;-74
2022/12/22 03:50:51;;;;;;;1.77;0.50;;;;;;;;;;5108907;28;20047;-74
2022/12/22 03:53:21;;;;;;;5.28;0.50;;;;;;;;;;5109839;28;20048;-74
2022/12/22 03:55:51;;;;;;;2.15;0.47;;;;;;;;;;5109854;28;20517;-74
2022/12/22 03:58:21;;;;;;;4.97;0.40;;;;;;;;;;5110040;28;20055;-74
2022/12/22 04:00:51;;;;;;;2.25;0.50;;;;;;;;;;5110799;28;20043;-74
2022/12/22 04:03:21;;;;;;;4.10;0.65;;;;;;;;;;5109724;28;20048;-74
2022/12/22 04:05:51;;;;;;;3.28;0.43;;;;;;;;;;5109878;28;20047;-74
2022/12/22 04:08:21;;;;;;;4.80;0.73;;;;;;;;;;5110238;28;20050;-74
2022/12/22 04:13:40;;;;;;;4.47;0.77;;;;;;;;;;5109813;28;20039;-74
2022/12/22 04:16:10;;;;;;;5.60;0.52;;;;;;;;;;5109955;28;20418;-74
2022/12/22 04:18:39;;;;;;;2.22;0.30;;;;;;;;;;5109734;28;20510;-74
2022/12/22 04:21:10;;;;;;;2.90;0.43;;;;;;;;;;5109752;28;20134;-74
2022/12/22 04:23:40;;;;;;;5.20;0.50;;;;;;;;;;5109500;28;20043;-74
2022/12/22 04:26:09;;;;;;;1.27;0.50;;;;;;;;;;5108726;28;20048;-74
2022/12/22 04:28:41;;;;;;;2.65;0.60;;;;;;;;;;5109646;28;20387;-73
2022/12/22 04:31:11;;;;;;;5.18;0.82;;;;;;;;;;5107984;28;20051;-74
2022/12/22 04:33:41;;;;;;;1.15;0.40;;;;;;;;;;5109805;28;20059;-74
2022/12/22 04:36:12;;;;;;;1.70;0.30;;;;;;;;;;5108916;28;20051;-74
2022/12/22 04:38:43;;;;;;;4.97;0.52;;;;;;;;;;5108329;28;20052;-74
2022/12/22 04:41:13;;;;;;;3.25;0.43;;;;;;;;;;5107702;28;20044;-74
2022/12/22 04:43:42;;;;;;;2.47;0.47;;;;;;;;;;5109380;28;20109;-74
2022/12/22 04:46:13;;;;;;;5.07;1.02;;;;;;;;;;5109018;28;20047;-74
2022/12/22 04:48:44;;;;;;;1.27;0.45;;;;;;;;;;5108541;28;20044;-74
2022/12/22 04:51:14;;;;;;;1.27;0.40;;;;;;;;;;5108848;28;20062;-74
2022/12/22 04:53:43;;;;;;;1.80;0.40;;;;;;;;;;5108918;28;20058;-74
2022/12/22 04:56:14;;;;;;;3.30;0.43;;;;;;;;;;5107493;28;20052;-74
2022/12/22 04:58:43;;;;;;;2.85;0.60;;;;;;;;;;5109087;28;20062;-74
2022/12/22 05:01:16;;;;;;;4.13;0.43;;;;;;;;;;5108737;28;20055;-74
2022/12/22 05:03:47;;;;;;;1.10;0.68;;;;;;;;;;5109190;28;20486;-74
2022/12/22 05:06:17;;;;;;;3.05;0.60;;;;;;;;;;5108673;28;20051;-74
2022/12/22 05:08:47;;;;;;;3.22;0.80;;;;;;;;;;5108779;28;20051;-74
2022/12/22 05:11:17;;;;;;;2.70;0.22;;;;;;;;;;5108760;28;20154;-74
2022/12/22 05:13:47;;;;;;;1.95;0.50;;;;;;;;;;5108262;28;20044;-73
2022/12/22 05:16:17;;;;;;;3.83;0.63;;;;;;;;;;5107146;28;20058;-73
2022/12/22 05:18:48;;;;;;;1.10;0.32;;;;;;;;;;5108706;28;20047;-73
2022/12/22 05:21:21;;;;;;;4.15;0.60;;;;;;;;;;5107443;28;20516;-73
2022/12/22 05:23:50;;;;;;;5.78;0.40;;;;;;;;;;5108977;28;20052;-73
2022/12/22 05:26:20;;;;;;;2.05;0.40;;;;;;;;;;5106639;28;20051;-73
2022/12/22 05:28:51;;;;;;;4.05;0.38;;;;;;;;;;5108561;28;20043;-73
2022/12/22 05:31:25;;;;;;;3.08;0.63;;;;;;;;;;5108187;28;20043;-73
2022/12/22 05:33:55;;;;;;;1.98;0.38;;;;;;;;;;5107999;28;20047;-73
2022/12/22 05:36:25;;;;;;;3.40;0.47;;;;;;;;;;5108252;28;20070;-73
2022/12/22 05:38:55;;;;;;;4.53;0.50;;;;;;;;;;5107881;28;20047;-74
2022/12/22 05:41:25;;;;;;;0.80;0.35;;;;;;;;;;5108022;28;20051;-73
2022/12/22 05:43:55;;;;;;;0.52;0.30;;;;;;;;;;5108195;28;20043;-73
2022/12/22 05:46:25;;;;;;;1.38;0.30;;;;;;;;;;5106979;28;20048;-73
2022/12/22 05:48:55;;;;;;;2.28;0.50;;;;;;;;;;5106582;28;20051;-73
2022/12/22 05:51:25;;;;;;;2.60;0.40;;;;;;;;;;5107703;28;20059;-73
2022/12/22 05:53:55;;;;;;;0.73;0.30;;;;;;;;;;5108199;28;20070;-73
2022/12/22 05:56:25;;;;;;;0.65;0.43;;;;;;;;;;5107478;28;20052;-73
2022/12/22 05:58:55;;;;;;;0.70;0.40;;;;;;;;;;5107306;28;20043;-73
2022/12/22 06:01:25;;;;;;;0.70;0.13;;;;;;;;;;5107324;28;20044;-73
2022/12/22 06:03:56;;;;;;;3.15;0.38;;;;;;;;;;5107334;28;20134;-73
2022/12/22 06:06:29;;;;;;;0.63;0.30;;;;;;;;;;5106208;28;20829;-73
2022/12/22 06:08:58;;;;;;;2.25;0.52;;;;;;;;;;5107293;28;20058;-73
2022/12/22 06:11:28;;;;;;;1.63;0.47;;;;;;;;;;5106408;28;20050;-73
2022/12/22 06:13:58;;;;;;;1.17;0.30;;;;;;;;;;5107419;28;20050;-73
2022/12/22 06:16:28;;;;;;;1.85;0.45;;;;;;;;;;5107412;28;20056;-73
2022/12/22 06:18:58;;;;;;;3.03;0.28;;;;;;;;;;5105293;28;20059;-73
2022/12/22 06:21:28;;;;;;;1.15;0.22;;;;;;;;;;5107175;28;20052;-73
2022/12/22 06:23:59;;;;;;;0.20;0.20;;;;;;;;;;5107465;28;20048;-73
2022/12/22 06:26:30;;;;;;;2.17;0.45;;;;;;;;;;5106922;28;20498;-73
2022/12/22 06:29:00;;;;;;;1.85;0.35;;;;;;;;;;5107131;28;20051;-73
2022/12/22 06:31:31;;;;;;;0.57;0.30;;;;;;;;;;5107429;28;20044;-73
2022/12/22 06:34:01;;;;;;;2.90;0.45;;;;;;;;;;5107623;28;20043;-73
2022/12/22 06:36:33;;;;;;;4.10;0.52;;;;;;;;;;5107116;28;20048;-73
2022/12/22 06:39:06;;;;;;;1.45;0.40;;;;;;;;;;5105830;28;20039;-73
2022/12/22 06:44:29;;;;;;;3.60;0.60;;;;;;;;;;5107054;28;20055;-74
2022/12/22 06:46:59;;;;;;;1.98;0.32;;;;;;;;;;5106892;28;20054;-73
2022/12/22 06:49:30;;;;;;;1.63;0.60;;;;;;;;;;5107114;28;20494;-73
2022/12/22 06:52:00;;;;;;;2.60;0.40;;;;;;;;;;5107128;28;20486;-73
2022/12/22 06:54:30;;;;;;;2.10;0.80;;;;;;;;;;5107168;28;20052;-73
2022/12/22 06:57:02;;;;;;;2.58;0.50;;;;;;;;;;5106819;28;20410;-73
2022/12/22 06:59:32;;;;;;;1.75;0.55;;;;;;;;;;5107392;28;20052;-73
2022/12/22 07:02:02;;;;;;;1.98;0.50;;;;;;;;;;5107099;28;20494;-73
2022/12/22 07:04:32;;;;;;;4.18;0.50;;;;;;;;;;5106496;28;20474;-73
2022/12/22 07:07:04;;;;;;;3.28;0.40;;;;;;;;;;5106568;28;20494;-73
2022/12/22 07:09:34;;;;;;;2.80;0.55;;;;;;;;;;5106953;28;20048;-73
2022/12/22 07:12:05;;;;;;;4.63;0.60;;;;;;;;;;5107835;28;20451;-73
2022/12/22 07:14:34;;;;;;;5.03;0.70;;;;;;;;;;5110804;28;20047;-73
2022/12/22 07:17:05;;;;;;;2.45;1.00;;;;;;;;;;5110937;28;20142;-73
2022/12/22 07:19:34;;;;;;;2.60;0.28;;;;;;;;;;5111052;28;20588;-74
2022/12/22 07:22:05;;;;;;;1.00;0.35;;;;;;;;;;5110700;28;20047;-74
2022/12/22 07:24:35;;;;;;;2.88;0.63;;;;;;;;;;5110330;28;20055;-73
2022/12/22 07:27:06;;;;;;;3.40;0.43;;;;;;;;;;5110523;28;20051;-74
2022/12/22 07:29:35;;;;;;;0.40;0.30;;;;;;;;;;5110513;28;20043;-73
2022/12/22 07:32:06;;;;;;;2.67;0.60;;;;;;;;;;5110539;28;20040;-74
2022/12/22 07:34:36;;;;;;;3.13;0.50;;;;;;;;;;5110117;28;20055;-73
2022/12/22 07:37:07;;;;;;;0.75;0.55;;;;;;;;;;5110497;28;20052;-74
2022/12/22 07:39:37;;;;;;;4.18;0.57;;;;;;;;;;5109013;28;20048;-74
2022/12/22 07:45:00;;;;;;;1.20;0.38;;;;;;;;;;5110938;28;20506;-74
2022/12/22 07:47:31;;;;;;;4.25;0.63;;;;;;;;;;5110439;28;20047;-73
2022/12/22 07:50:47;;;;;;;4.20;0.57;;;;;;;;;;5108684;28;20391;-74
2022/12/22 07:53:02;;;;;;;0.32;0.30;;;;;;;;;;5105562;28;20098;-73
2022/12/22 07:55:36;;;;;;;2.00;0.50;;;;;;;;;;5109741;28;20062;-73
2022/12/22 07:58:07;;;;;;;3.20;0.47;;;;;;;;;;5109564;28;20047;-73
2022/12/22 08:00:38;;;;;;;0.85;0.32;;;;;;;;;;5109888;28;20582;-73
2022/12/22 08:03:08;;;;;;;2.38;0.52;;;;;;;;;;5109606;28;20418;-73
2022/12/22 08:05:39;;;;;;;2.05;0.52;;;;;;;;;;5108330;28;20043;-73
2022/12/22 08:08:12;;;;;;;4.35;0.35;;;;;;;;;;5108384;28;20059;-74
2022/12/22 08:10:43;;;;;;;3.22;0.55;;;;;;;;;;5110052;28;20043;-74
2022/12/22 08:13:13;;;;;;;3.97;1.00;;;;;;;;;;5108621;28;20418;-73
2022/12/22 08:15:43;;;;;;;4.25;1.00;;;;;;;;;;5108151;28;20059;-73
2022/12/22 08:18:13;;;;;;;0.98;0.30;;;;;;;;;;5109429;28;20047;-73
2022/12/22 08:20:51;;;;;;;2.08;0.80;;;;;;;;;;5109847;28;20051;-74
2022/12/22 08:23:23;;;;;;;1.60;0.50;;;;;;;;;;5109243;28;20062;-74
2022/12/22 08:26:31;;;;;;;4.38;0.50;;;;;;;;;;5108824;28;20039;-73
2022/12/22 08:29:12;;;;;;;4.93;0.55;;;;;;;;;;5085157;28;20044;-74
2022/12/22 08:31:44;;;;;;;;;;;;;;;;;;5108436;28;20047;-74
2022/12/22 08:34:15;;;;;;;3.40;0.70;;;;;;;;;;5109188;28;19920;-73
2022/12/22 08:36:49;;;;;;;2.25;0.80;;;;;;;;;;5109770;28;20062;-73
2022/12/22 08:39:22;;;;;;;0.68;0.60;;;;;;;;;;5107863;28;20057;-73
2022/12/22 08:41:53;;;;;;;3.33;0.55;;;;;;;;;;5109001;28;20055;-73
2022/12/22 08:44:25;;;;;;;2.03;0.70;;;;;;;;;;5109069;28;20051;-73
2022/12/22 08:46:58;;;;;;;6.28;1.38;;;;;;;;;;5108716;28;20502;-74
2022/12/22 08:49:28;;;;;;;2.17;0.40;;;;;;;;;;5109339;28;20052;-78
2022/12/22 08:51:59;;;;;;;0.88;0.60;;;;;;;;;;5109377;28;20052;-73
2022/12/22 08:54:32;;;;;;;4.90;0.90;;;;;;;;;;5109147;28;20063;-74
2022/12/22 08:57:02;;;;;;;5.97;0.77;;;;;;;;;;5108820;28;20429;-73
2022/12/22 08:59:32;;;;;;;9.20;1.52;;;;;;;;;;5108888;28;20040;-73
2022/12/22 09:02:04;;;;;;;8.48;0.65;;;;;;;;;;5108831;28;20050;-74
2022/12/22 09:04:36;;;;;;;3.97;0.57;;;;;;;;;;5108968;28;20048;-74
2022/12/22 09:07:07;;;;;;;5.90;0.63;;;;;;;;;;5108572;28;20067;-75
2022/12/22 09:09:38;;;;;;;3.05;1.00;;;;;;;;;;5107213;28;20048;-74
2022/12/22 09:12:08;;;;;;;3.33;0.82;;;;;;;;;;5108596;28;20070;-73
2022/12/22 09:14:39;;;;;;;5.57;0.80;;;;;;;;;;5107352;28;20055;-74
2022/12/22 09:17:10;;;;;;;4.32;0.70;;;;;;;;;;5106965;28;20044;-73
2022/12/22 09:19:41;;;;;;;6.28;0.70;;;;;;;;;;5108021;28;20121;-74
2022/12/22 09:22:10;;;;;;;4.28;0.80;;;;;;;;;;5108064;28;20400;-75
2022/12/22 09:24:41;;;;;;;4.20;0.60;;;;;;;;;;5108930;28;20055;-74
2022/12/22 09:27:12;;;;;;;8.30;0.73;;;;;;;;;;5108268;28;20421;-74
2022/12/22 09:29:42;;;;;;;5.43;0.85;;;;;;;;;;5107000;28;20051;-74
2022/12/22 09:32:13;;;;;;;1.38;0.63;;;;;;;;;;5107880;28;20048;-74
2022/12/22 09:34:44;;;;;;;4.45;0.90;;;;;;;;;;5108121;28;20036;-74
2022/12/22 09:37:16;;;;;;;2.45;0.93;;;;;;;;;;5107518;28;20048;-74
2022/12/22 09:39:48;;;;;;;6.95;0.88;;;;;;;;;;5108268;28;20054;-75
2022/12/22 09:42:20;;;;;;;3.40;0.73;;;;;;;;;;5108183;28;20040;-74
2022/12/22 09:44:52;;;;;;;5.45;1.27;;;;;;;;;;5107426;28;20490;-75
2022/12/22 09:47:36;;;;;;;8.93;1.00;;;;;;;;;;5107511;28;20051;-74
2022/12/22 09:50:14;;;;;;;7.13;1.27;;;;;;;;;;5107453;28;20059;-74
2022/12/22 09:52:51;;;;;;;5.07;1.40;;;;;;;;;;5107992;28;20054;-74
2022/12/22 09:55:25;;;;;;;2.60;0.80;;;;;;;;;;5107509;28;20055;-74
2022/12/22 09:57:58;;;;;;;2.03;0.80;;;;;;;;;;5107572;28;20051;-74
2022/12/22 10:00:29;;;;;;;4.35;0.70;;;;;;;;;;5107565;28;20047;-75
2022/12/22 10:03:39;;;;;;;4.75;0.70;;;;;;;;;;5108124;28;20073;-74
2022/12/22 10:06:21;;;;;;;5.97;0.68;;;;;;;;;;5085981;28;20051;-79
2022/12/22 10:08:53;;;;;;;6.63;0.50;;;;;;;;;;5107476;28;20054;-74
2022/12/22 10:11:24;;;;;;;2.15;0.82;;;;;;;;;;5107737;28;20434;-77
2022/12/22 10:13:55;;;;;;;6.32;0.88;;;;;;;;;;5107533;28;20044;-75
2022/12/22 10:16:28;;;;;;;2.00;0.30;;;;;;;;;;5107253;28;20062;-75
2022/12/22 10:19:20;;;;;;;3.25;1.15;;;;;;;;;;5107283;28;20040;-74
2022/12/22 10:21:52;;;;;;;2.45;0.52;;;;;;;;;;5106236;28;20047;-74
2022/12/22 10:24:28;;;;;;;2.60;0.43;;;;;;;;;;5107164;28;20044;-78
2022/12/22 10:27:02;;;;;;;3.70;0.80;;;;;;;;;;5107322;28;20050;-75
2022/12/22 10:29:34;;;;;;;5.10;0.90;;;;;;;;;;5107298;28;20510;-77
2022/12/22 10:32:13;;;;;;;2.67;0.80;;;;;;;;;;5107011;28;20502;-74
2022/12/22 10:35:06;;;;;;;9.13;0.98;;;;;;;;;;5106708;28;20406;-74
2022/12/22 10:37:40;;;;;;;5.95;1.05;;;;;;;;;;5107589;28;20079;-75
2022/12/22 10:40:21;;;;;;;2.67;0.70;;;;;;;;;;5107084;28;20043;-75
2022/12/22 10:42:55;;;;;;;3.70;0.50;;;;;;;;;;5105718;28;20505;-75
2022/12/22 10:45:26;;;;;;;3.25;0.60;;;;;;;;;;5106341;28;20517;-81
2022/12/22 10:47:58;;;;;;;6.30;0.90;;;;;;;;;;5106272;28;20094;-74
2022/12/22 10:50:29;;;;;;;2.33;0.45;;;;;;;;;;5105104;28;20059;-75
2022/12/22 10:53:02;;;;;;;6.38;0.80;;;;;;;;;;5106780;28;20043;-74
2022/12/22 10:55:34;;;;;;;6.82;1.25;;;;;;;;;;5106956;28;20691;-75
2022/12/22 10:58:18;;;;;;;1.65;0.73;;;;;;;;;;5107250;28;20044;-75
2022/12/22 11:01:09;;;;;;;3.13;0.98;;;;;;;;;;5106799;28;20137;-75
2022/12/22 11:03:40;;;;;;;3.45;0.52;;;;;;;;;;5107645;28;20047;-75
2022/12/22 11:06:13;;;;;;;3.75;0.70;;;;;;;;;;5106656;28;20043;-75
2022/12/22 11:08:44;;;;;;;2.33;0.52;;;;;;;;;;5106633;28;20059;-75
2022/12/22 11:11:37;;;;;;;1.67;0.43;;;;;;;;;;5105147;28;20404;-75
2022/12/22 11:14:13;;;;;;;6.45;0.77;;;;;;;;;;5107136;28;20044;-76
2022/12/22 11:16:54;;;;;;;3.25;0.75;;;;;;;;;;5106471;28;20058;-77
2022/12/22 11:19:41;;;;;;;4.97;0.75;;;;;;;;;;5106664;28;20051;-75
2022/12/22 11:22:31;;;;;;;;;;;;;;;;;;5105981;28;20529;-75
2022/12/22 11:25:22;;;;;;;3.50;0.55;;;;;;;;;;5106738;28;20306;-75
2022/12/22 11:28:26;;;;;;;3.33;0.47;;;;;;;;;;5106745;28;20051;-79
2022/12/22 11:31:15;;;;;;;3.53;0.73;;;;;;;;;;5106325;28;20040;-80
2022/12/22 11:34:16;;;;;;;8.48;0.70;;;;;;;;;;5106403;28;20046;-74
2022/12/22 11:37:21;;;;;;;2.92;0.50;;;;;;;;;;5106265;28;20055;-77
2022/12/22 11:40:21;;;;;;;1.67;0.50;;;;;;;;;;5106924;28;20050;-75
2022/12/22 11:43:23;;;;;;;2.97;0.60;;;;;;;;;;5101773;28;20083;-78
2022/12/22 11:46:25;;;;;;;1.90;0.30;;;;;;;;;;5106505;28;20070;-77
2022/12/22 11:49:39;;;;;;;1.48;0.70;;;;;;;;;;5106996;28;20052;-76
2022/12/22 11:52:32;;;;;;;1.80;0.50;;;;;;;;;;5100540;28;20410;-75
2022/12/22 11:55:11;;;;;;;0.70;0.40;;;;;;;;;;5106588;28;20367;-75
2022/12/22 11:58:18;;;;;;;1.00;0.30;;;;;;;;;;5106542;28;20537;-74
2022/12/22 12:01:06;;;;;;;0.75;0.43;;;;;;;;;;5105115;28;20518;-75
2022/12/22 12:03:54;;;;;;;1.45;0.40;;;;;;;;;;5110394;28;20044;-75
2022/12/22 12:06:55;;;;;;;3.15;0.43;;;;;;;;;;5109226;28;20044;-76
2022/12/22 12:09:39;;;;;;;3.65;0.50;;;;;;;;;;5107927;28;20434;-76
2022/12/22 12:12:18;;;;;;;1.13;0.22;;;;;;;;;;5110652;28;20039;-75
2022/12/22 12:15:13;;;;;;;2.05;0.45;;;;;;;;;;5110450;28;20522;-75
2022/12/22 12:18:08;;;;;;;1.55;0.38;;;;;;;;;;5109972;28;20043;-75
2022/12/22 12:21:20;;;;;;;2.53;0.50;;;;;;;;;;5108260;28;20402;-80
2022/12/22 12:24:00;;;;;;;1.88;0.43;;;;;;;;;;5110289;28;20070;-77
2022/12/22 12:26:42;;;;;;;1.35;0.63;;;;;;;;;;5109857;28;20051;-75
2022/12/22 12:29:19;;;;;;;0.32;0.20;;;;;;;;;;5107859;28;20052;-75
2022/12/22 12:31:57;;;;;;;1.52;0.35;;;;;;;;;;5108903;28;20051;-76
2022/12/22 12:34:33;;;;;;;2.13;0.40;;;;;;;;;;5109654;28;20549;-76
2022/12/22 12:37:42;;;;;;;1.67;0.30;;;;;;;;;;5110086;28;20047;-75
2022/12/22 12:40:19;;;;;;;0.82;0.43;;;;;;;;;;5099108;28;20099;-74
2022/12/22 12:42:50;;;;;;;0.63;0.30;;;;;;;;;;5088845;28;20048;-76
2022/12/22 12:45:38;;;;;;;2.97;0.50;;;;;;;;;;5087490;28;20055;-75
2022/12/22 12:48:23;;;;;;;;;;;;;;;;;;5088906;28;20052;-75
2022/12/22 12:50:58;;;;;;;0.47;0.38;;;;;;;;;;5088894;28;19931;-76
2022/12/22 12:53:29;;;;;;;8.10;6.05;;;;;;;;;;5088748;28;20059;-76
2022/12/22 12:56:04;;;;;;;1.52;0.50;;;;;;;;;;5088854;28;20059;-77
2022/12/22 12:58:37;;;;;;;0.73;0.30;;;;;;;;;;5088131;28;20048;-77
2022/12/22 13:01:16;;;;;;;1.17;0.40;;;;;;;;;;5089658;28;20048;-82
2022/12/22 13:03:46;;;;;;;2.33;0.60;;;;;;;;;;5088671;28;20052;-77
2022/12/22 13:06:46;;;;;;;3.50;0.40;;;;;;;;;;5088563;28;20040;-76
2022/12/22 13:09:24;;;;;;;3.95;0.40;;;;;;;;;;5088260;28;20529;-75
2022/12/22 13:12:53;;;;;;;2.42;0.40;;;;;;;;;;5088728;28;20044;-75
2022/12/22 13:15:28;;;;;;;1.40;0.30;;;;;;;;;;4986405;28;20158;-75
2022/12/22 13:18:00;;;;;;;1.58;0.40;;;;;;;;;;4970750;28;20073;-76
2022/12/22 13:20:36;;;;;;;0.55;0.40;;;;;;;;;;5034841;28;20512;-75
2022/12/22 13:23:14;;;;;;;2.97;1.10;;;;;;;;;;5068128;28;20040;-76
2022/12/22 13:25:49;;;;;;;0.47;0.35;;;;;;;;;;5068418;28;20051;-77
2022/12/22 13:28:22;;;;;;;0.70;0.38;;;;;;;;;;5066723;28;20064;-75
2022/12/22 13:31:05;;;;;;;2.63;0.30;;;;;;;;;;5067948;28;20037;-75
2022/12/22 13:33:38;;;;;;;0.70;0.30;;;;;;;;;;5067530;28;20041;-78
2022/12/22 13:36:19;;;;;;;2.70;0.65;;;;;;;;;;5065533;28;20071;-77
2022/12/22 13:39:00;;;;;;;0.40;0.40;;;;;;;;;;5067913;28;20430;-75
2022/12/22 13:41:33;;;;;;;3.70;1.77;;;;;;;;;;5068211;28;20506;-76
2022/12/22 13:44:08;;;;;;;0.85;0.40;;;;;;;;;;5067495;28;20052;-77
2022/12/22 13:46:39;;;;;;;0.82;0.60;;;;;;;;;;5067168;28;20044;-73
2022/12/22 13:49:18;;;;;;;0.50;0.30;;;;;;;;;;5067735;28;20059;-76
2022/12/22 13:52:17;;;;;;;1.38;0.30;;;;;;;;;;5065751;28;20056;-76
2022/12/22 13:54:48;;;;;;;2.65;0.82;;;;;;;;;;5067116;28;20057;-73
2022/12/22 13:57:21;;;;;;;0.88;0.30;;;;;;;;;;5067309;28;20668;-75
2022/12/22 13:59:53;;;;;;;2.05;0.55;;;;;;;;;;5067503;28;20040;-76
2022/12/22 14:02:32;;;;;;;0.60;0.30;;;;;;;;;;5067553;28;20055;-75
2022/12/22 14:05:10;;;;;;;3.97;0.65;;;;;;;;;;5067111;28;20053;-76
2022/12/22 14:07:40;;;;;;;1.08;0.30;;;;;;;;;;5067246;28;20059;-76
2022/12/22 14:10:11;;;;;;;1.85;0.40;;;;;;;;;;5066469;28;20407;-76
2022/12/22 14:12:45;;;;;;;1.80;0.40;;;;;;;;;;5067385;28;20040;-76
2022/12/22 14:15:18;;;;;;;2.03;0.50;;;;;;;;;;5067582;28;20154;-75
2022/12/22 14:17:50;;;;;;;1.55;0.30;;;;;;;;;;5066254;28;20052;-76
2022/12/22 14:20:39;;;;;;;1.08;0.30;;;;;;;;;;5067018;28;20147;-76
2022/12/22 14:23:30;;;;;;;0.52;0.20;;;;;;;;;;5066023;28;20052;-75
2022/12/22 14:26:07;;;;;;;2.15;0.50;;;;;;;;;;5066197;28;20495;-75
2022/12/22 14:28:49;;;;;;;0.77;0.40;;;;;;;;;;5067255;28;20055;-76
2022/12/22 14:31:19;;;;;;;1.48;0.40;;;;;;;;;;5066983;28;20079;-79
2022/12/22 14:33:55;;;;;;;2.13;0.30;;;;;;;;;;5066714;28;20049;-76
2022/12/22 14:36:27;;;;;;;1.63;0.43;;;;;;;;;;5066550;28;20068;-76
2022/12/22 14:38:59;;;;;;;0.30;0.30;;;;;;;;;;5067030;28;20451;-76
2022/12/22 14:41:53;;;;;;;2.28;0.30;;;;;;;;;;5066746;28;20040;-76
2022/12/22 14:44:49;;;;;;;2.03;0.50;;;;;;;;;;5066627;28;20495;-75
2022/12/22 14:47:26;;;;;;;1.90;0.40;;;;;;;;;;5065895;28;20060;-76
2022/12/22 14:50:03;;;;;;;1.73;0.30;;;;;;;;;;5065964;28;20076;-76
2022/12/22 14:52:49;;;;;;;2.75;0.63;;;;;;;;;;5066538;28;20373;-76
2022/12/22 14:55:38;;;;;;;2.22;0.50;;;;;;;;;;5066141;28;20044;-76
2022/12/22 14:58:19;;;;;;;2.03;0.40;;;;;;;;;;5066358;28;20037;-77
2022/12/22 15:01:12;;;;;;;2.83;0.68;;;;;;;;;;5066668;28;20052;-77
2022/12/22 15:03:43;;;;;;;2.30;0.40;;;;;;;;;;5066210;28;20061;-80
2022/12/22 15:06:31;;;;;;;1.60;0.50;;;;;;;;;;5066217;28;20052;-77
2022/12/22 15:09:10;;;;;;;;;;;;;;;;;;5066992;28;20056;-77
2022/12/22 15:11:53;;;;;;;3.35;0.32;;;;;;;;;;5065892;28;19924;-76
2022/12/22 15:14:25;;;;;;;0.40;0.40;;;;;;;;;;5066494;28;20052;-77
2022/12/22 15:17:05;;;;;;;1.13;0.55;;;;;;;;;;5065933;28;20048;-80
2022/12/22 15:19:36;;;;;;;2.67;0.60;;;;;;;;;;5066499;28;20057;-75
2022/12/22 15:22:08;;;;;;;1.85;0.57;;;;;;;;;;5065877;28;20059;-75
2022/12/22 15:24:40;;;;;;;5.07;0.65;;;;;;;;;;5066286;28;20435;-76
2022/12/22 15:27:10;;;;;;;1.90;0.60;;;;;;;;;;5066208;28;20068;-76
2022/12/22 15:29:40;;;;;;;0.20;0.15;;;;;;;;;;5066311;28;20053;-77
2022/12/22 15:32:12;;;;;;;2.30;0.57;;;;;;;;;;5066187;28;20048;-75
2022/12/22 15:34:43;;;;;;;2.03;0.40;;;;;;;;;;5067751;28;20044;-76
2022/12/22 15:37:15;;;;;;;2.10;0.28;;;;;;;;;;5069602;28;20063;-76
2022/12/22 15:39:46;;;;;;;1.50;0.40;;;;;;;;;;5069820;28;20530;-74
2022/12/22 15:42:16;;;;;;;1.85;0.32;;;;;;;;;;5069749;28;20045;-76
2022/12/22 15:44:46;;;;;;;1.45;0.32;;;;;;;;;;5068655;28;20053;-76
2022/12/22 15:47:21;;;;;;;0.55;0.30;;;;;;;;;;5069642;28;20056;-75
2022/12/22 15:49:52;;;;;;;0.90;0.40;;;;;;;;;;5069670;28;20048;-76
2022/12/22 15:52:24;;;;;;;1.10;0.40;;;;;;;;;;5069004;28;20056;-76
2022/12/22 15:54:54;;;;;;;4.38;0.73;;;;;;;;;;5070193;28;20107;-79
2022/12/22 15:57:25;;;;;;;4.78;0.60;;;;;;;;;;5069514;28;20506;-75
2022/12/22 15:59:55;;;;;;;1.77;0.30;;;;;;;;;;5069301;28;20514;-76
2022/12/22 16:02:26;;;;;;;3.45;0.50;;;;;;;;;;5069376;28;20049;-76
2022/12/22 16:04:56;;;;;;;1.33;0.32;;;;;;;;;;5069274;28;20056;-75
2022/12/22 16:07:26;;;;;;;4.75;0.60;;;;;;;;;;5069182;28;20052;-74
2022/12/22 16:09:57;;;;;;;1.38;0.50;;;;;;;;;;5068947;28;20055;-75
2022/12/22 16:12:31;;;;;;;1.80;0.40;;;;;;;;;;5069453;28;20048;-78
2022/12/22 16:15:02;;;;;;;1.10;0.47;;;;;;;;;;5069087;28;20044;-76
2022/12/22 16:17:33;;;;;;;2.88;0.60;;;;;;;;;;5069658;28;20040;-75
2022/12/22 16:20:03;;;;;;;2.72;0.52;;;;;;;;;;5069374;28;20048;-77
2022/12/22 16:22:35;;;;;;;3.05;1.88;;;;;;;;;;5069149;28;20040;-77
2022/12/22 16:25:13;;;;;;;3.20;0.68;;;;;;;;;;5069226;28;20067;-76
2022/12/22 16:27:46;;;;;;;5.72;0.50;;;;;;;;;;5069606;28;20041;-75
2022/12/22 16:30:23;;;;;;;0.50;0.40;;;;;;;;;;5068784;28;20048;-75
2022/12/22 16:32:55;;;;;;;3.22;0.75;;;;;;;;;;5069208;28;20045;-75
2022/12/22 16:35:29;;;;;;;2.05;0.52;;;;;;;;;;5068527;28;20526;-76
2022/12/22 16:37:59;;;;;;;5.10;0.70;;;;;;;;;;5069105;28;20052;-75
2022/12/22 16:40:32;;;;;;;2.53;0.70;;;;;;;;;;5069804;28;20041;-75
2022/12/22 16:43:15;;;;;;;4.88;0.57;;;;;;;;;;5068950;28;20047;-81
2022/12/22 16:46:07;;;;;;;2.10;0.70;;;;;;;;;;5067521;28;20051;-78
2022/12/22 16:48:43;;;;;;;3.00;0.63;;;;;;;;;;5068684;28;20056;-75
2022/12/22 16:51:33;;;;;;;2.80;0.40;;;;;;;;;;5068247;28;20529;-75
2022/12/22 16:54:04;;;;;;;1.15;0.45;;;;;;;;;;5068243;28;20048;-76
2022/12/22 16:56:34;;;;;;;1.10;0.50;;;;;;;;;;5068318;28;20413;-76
2022/12/22 16:59:04;;;;;;;4.75;0.68;;;;;;;;;;5068169;28;20056;-75
2022/12/22 17:01:54;;;;;;;1.42;0.50;;;;;;;;;;5068387;28;20044;-75
2022/12/22 17:04:30;;;;;;;1.65;0.47;;;;;;;;;;5068381;28;20048;-76
2022/12/22 17:07:02;;;;;;;1.15;0.47;;;;;;;;;;5068542;28;20045;-75
2022/12/22 17:09:41;;;;;;;5.35;0.45;;;;;;;;;;5068371;28;20056;-76
2022/12/22 17:12:20;;;;;;;4.65;0.70;;;;;;;;;;5067741;28;20048;-75
2022/12/22 17:14:53;;;;;;;5.20;0.75;;;;;;;;;;5068167;28;20040;-80
2022/12/22 17:17:24;;;;;;;3.65;0.47;;;;;;;;;;5068285;28;20048;-76
2022/12/22 17:20:03;;;;;;;2.60;0.68;;;;;;;;;;5068249;28;20048;-76
2022/12/22 17:22:42;;;;;;;0.93;0.40;;;;;;;;;;5067706;28;20048;-75
2022/12/22 17:25:19;;;;;;;1.30;0.40;;;;;;;;;;5067866;28;20044;-74
2022/12/22 17:27:50;;;;;;;5.22;0.75;;;;;;;;;;5067895;28;20040;-74
2022/12/22 17:30:24;;;;;;;1.90;0.50;;;;;;;;;;5068179;28;20075;-75
2022/12/22 17:32:54;;;;;;;0.55;0.30;;;;;;;;;;5065690;28;20060;-75
2022/12/22 17:35:27;;;;;;;2.25;0.52;;;;;;;;;;5066360;28;20048;-75
2022/12/22 17:37:58;;;;;;;2.45;0.60;;;;;;;;;;5067636;28;20535;-74
2022/12/22 17:40:33;;;;;;;2.25;0.40;;;;;;;;;;5067760;28;20056;-73
2022/12/22 17:43:03;;;;;;;3.75;0.60;;;;;;;;;;5067810;28;20483;-75
2022/12/22 17:45:33;;;;;;;2.42;0.60;;;;;;;;;;5067601;28;20044;-76
2022/12/22 17:48:04;;;;;;;7.20;1.20;;;;;;;;;;5065410;28;20546;-75
2022/12/22 17:50:35;;;;;;;2.95;0.60;;;;;;;;;;5066901;28;20048;-74
2022/12/22 17:53:09;;;;;;;3.72;0.52;;;;;;;;;;5067546;28;20510;-74
2022/12/22 17:55:41;;;;;;;2.28;0.32;;;;;;;;;;5067707;28;20045;-77
2022/12/22 17:58:31;;;;;;;3.45;0.63;;;;;;;;;;5066681;28;20052;-75
2022/12/22 18:01:02;;;;;;;1.10;0.40;;;;;;;;;;5067000;28;20044;-76
2022/12/22 18:03:32;;;;;;;3.88;0.52;;;;;;;;;;5067191;28;20052;-75
2022/12/22 18:06:03;;;;;;;2.95;0.70;;;;;;;;;;5066790;28;20325;-78
2022/12/22 18:08:33;;;;;;;0.70;0.47;;;;;;;;;;5067079;28;20075;-76
2022/12/22 18:11:03;;;;;;;1.98;0.60;;;;;;;;;;5066844;28;20056;-75
2022/12/22 18:13:35;;;;;;;2.20;0.77;;;;;;;;;;5067118;28;20380;-75
2022/12/22 18:16:06;;;;;;;2.28;1.38;;;;;;;;;;5066294;28;20040;-75
2022/12/22 18:18:37;;;;;;;4.03;0.52;;;;;;;;;;5066798;28;20052;-76
2022/12/22 18:21:22;;;;;;;5.80;0.75;;;;;;;;;;5067127;28;20499;-75
2022/12/22 18:23:53;;;;;;;3.25;0.50;;;;;;;;;;5066959;28;20057;-75
2022/12/22 18:26:26;;;;;;;1.67;0.43;;;;;;;;;;5067204;28;20329;-74
2022/12/22 18:28:58;;;;;;;2.17;0.40;;;;;;;;;;5066286;28;20045;-75
2022/12/22 18:31:29;;;;;;;1.63;0.35;;;;;;;;;;5066688;28;20513;-76
2022/12/22 18:33:59;;;;;;;3.65;0.40;;;;;;;;;;5065082;28;20045;-76
2022/12/22 18:36:31;;;;;;;3.28;0.50;;;;;;;;;;5066934;28;20065;-76
2022/12/22 18:39:03;;;;;;;5.75;0.80;;;;;;;;;;5066503;28;20048;-76
2022/12/22 18:41:34;;;;;;;2.38;0.50;;;;;;;;;;5065548;28;20056;-75
2022/12/22 18:44:05;;;;;;;4.25;0.55;;;;;;;;;;5066406;28;20486;-75
2022/12/22 18:46:35;;;;;;;4.63;0.60;;;;;;;;;;5066675;28;20511;-76
2022/12/22 18:49:06;;;;;;;4.05;0.73;;;;;;;;;;5065502;28;20060;-76
2022/12/22 18:51:37;;;;;;;4.28;0.57;;;;;;;;;;5066029;28;20063;-76
2022/12/22 18:54:31;;;;;;;3.65;0.60;;;;;;;;;;5074818;28;20046;-78
2022/12/22 18:57:02;;;;;;;3.33;0.65;;;;;;;;;;5086402;28;20056;-75
2022/12/22 18:59:32;;;;;;;3.72;0.63;;;;;;;;;;5086124;28;20063;-75
2022/12/22 19:02:16;;;;;;;3.45;0.55;;;;;;;;;;5086582;28;20048;-75
2022/12/22 19:04:49;;;;;;;2.95;0.77;;;;;;;;;;5087017;28;20056;-74
2022/12/22 19:07:22;;;;;;;3.80;0.60;;;;;;;;;;5086299;28;20048;-77
2022/12/22 19:09:53;;;;;;;4.78;0.93;;;;;;;;;;5090871;28;20361;-75
2022/12/22 19:12:24;;;;;;;4.57;1.00;;;;;;;;;;5090693;28;20611;-75